Edgar B Speer — WQZ9670 — position and weather

sailwx.info

Track history (hours):
 
Tides and Currents Weather Stations Pressure Air Temp Water Temp Dewpoint Dewpoint Depression Visibility Wind Speed Wind Dir Waves Ship Positions

Edgar B Speer

Owner: Great Lakes Fleet, Inc, DULUTH, MN. More information available from US FCC via Universal Licensing System and Coast Guard Vessel Documentation Center.

Last reported at 2017-Jun-27 12:18 UTC. Time now 2017-Jun-27 20:54 UTC.
Position N 47°05' W 091°14'.

Length 306 m; draft 8.5 m.

Type: Cargo ship. MMSI: 366971330.

Date/timePositionNaut miles runAvg speedWind from/ knotsBaromVisibWave heightAir tempDewpointWater temp
2017-Jun-27 12:18N 47°05' W 091°14'612.7
2017-Jun-27 11:47N 47°03' W 091°23'912.6
2017-Jun-27 11:03N 47°01' W 091°36'112.3
2017-Jun-27 11:00N 47°01' W 091°37'2 4.3
2017-Jun-27 10:30N 47°01' W 091°40'0 0.2
2017-Jun-27 10:00N 47°01' W 091°40'0 0.0
2017-Jun-27 09:30N 47°01' W 091°40'0 0.0
2017-Jun-27 09:00N 47°01' W 091°40'0 0.0
2017-Jun-27 08:30N 47°01' W 091°40'0 0.0
2017-Jun-27 08:00N 47°01' W 091°40'0 0.0
2017-Jun-27 07:30N 47°01' W 091°40'0 0.0
2017-Jun-27 06:54N 47°01' W 091°40'0 0.0
2017-Jun-27 06:30N 47°01' W 091°40'0 0.0
2017-Jun-27 02:35N 47°01' W 091°40'0 0.0
2017-Jun-27 01:30N 47°01' W 091°40'0 0.4
2017-Jun-27 01:00N 47°01' W 091°40'1 1.3
2017-Jun-27 00:30N 47°00' W 091°41'1 1.6
2017-Jun-27 00:00N 46°59' W 091°41'0 0.6
2017-Jun-26 23:30N 46°60' W 091°41'3 5.1
2017-Jun-26 22:51N 46°57' W 091°43'2 5.0
2017-Jun-26 22:30N 46°58' W 091°42'4 7.3
2017-Jun-26 21:59N 47°00' W 091°37'33410.1
2017-Jun-25 12:55N 45°48' W 083°45'614.1
2017-Jun-25 12:27N 45°42' W 083°40'614.1
2017-Jun-25 12:00N 45°37' W 083°34'713.8
2017-Jun-25 11:30N 45°31' W 083°29'713.7
2017-Jun-25 10:58N 45°25' W 083°23'  
2017-Jun-21 23:41N 45°42' W 083°20'512.4
2017-Jun-21 23:16N 45°45' W 083°27'312.5
2017-Jun-21 23:00N 45°46' W 083°31'612.6
2017-Jun-21 22:30N 45°50' W 083°38'712.9
2017-Jun-21 22:00N 45°53' W 083°46'612.3
2017-Jun-21 21:31N 45°57' W 083°54'19 9.1
2017-Jun-21 19:22N 46°13' W 084°09'298 9.3
2017-Jun-20 11:22N 47°05' W 091°17'512.6
2017-Jun-20 11:00N 47°03' W 091°23'612.6
2017-Jun-20 10:30N 47°02' W 091°32'611.1
2017-Jun-20 10:00N 47°00' W 091°40'1 1.3
2017-Jun-20 09:30N 47°01' W 091°40'0 0.0
2017-Jun-20 09:00N 47°01' W 091°40'0 0.0
2017-Jun-20 08:29N 47°01' W 091°40'0 0.0
2017-Jun-20 08:00N 47°01' W 091°40'0 0.0
2017-Jun-20 07:30N 47°01' W 091°40'0 0.0
2017-Jun-20 07:00N 47°01' W 091°40'0 0.0
2017-Jun-20 06:23N 47°01' W 091°40'0 0.0
2017-Jun-19 23:25N 47°01' W 091°40'0 1.2
2017-Jun-19 23:00N 47°00' W 091°40'336 9.9
2017-Jun-18 12:55N 45°47' W 083°45'613.6
2017-Jun-18 12:30N 45°43' W 083°40'713.4
2017-Jun-18 12:00N 45°37' W 083°35'713.3
2017-Jun-18 11:30N 45°32' W 083°29'713.4
2017-Jun-18 10:58N 45°26' W 083°23'  
Track history (hours):
 
Tides and Currents Weather Stations Pressure Air Temp Water Temp Dewpoint Dewpoint Depression Visibility Wind Speed Wind Dir Waves Ship Positions

Edgar B Speer

Owner: Great Lakes Fleet, Inc, DULUTH, MN. More information available from US FCC via Universal Licensing System and Coast Guard Vessel Documentation Center.

Last reported at 2017-Jun-27 12:18 UTC. Time now 2017-Jun-27 20:54 UTC.
Position N 47°05' W 091°14'.

Length 306 m; draft 8.5 m.

Type: Cargo ship. MMSI: 366971330.

Date/timePositionNaut miles runAvg speedWind from/ knotsBaromVisibWave heightAir tempDewpointWater temp
2017-Jun-27 12:18N 47°05' W 091°14'612.7
2017-Jun-27 11:47N 47°03' W 091°23'912.6
2017-Jun-27 11:03N 47°01' W 091°36'112.3
2017-Jun-27 11:00N 47°01' W 091°37'2 4.3
2017-Jun-27 10:30N 47°01' W 091°40'0 0.2
2017-Jun-27 10:00N 47°01' W 091°40'0 0.0
2017-Jun-27 09:30N 47°01' W 091°40'0 0.0
2017-Jun-27 09:00N 47°01' W 091°40'0 0.0
2017-Jun-27 08:30N 47°01' W 091°40'0 0.0
2017-Jun-27 08:00N 47°01' W 091°40'0 0.0
2017-Jun-27 07:30N 47°01' W 091°40'0 0.0
2017-Jun-27 06:54N 47°01' W 091°40'0 0.0
2017-Jun-27 06:30N 47°01' W 091°40'0 0.0
2017-Jun-27 02:35N 47°01' W 091°40'0 0.0
2017-Jun-27 01:30N 47°01' W 091°40'0 0.4
2017-Jun-27 01:00N 47°01' W 091°40'1 1.3
2017-Jun-27 00:30N 47°00' W 091°41'1 1.6
2017-Jun-27 00:00N 46°59' W 091°41'0 0.6
2017-Jun-26 23:30N 46°60' W 091°41'3 5.1
2017-Jun-26 22:51N 46°57' W 091°43'2 5.0
2017-Jun-26 22:30N 46°58' W 091°42'4 7.3
2017-Jun-26 21:59N 47°00' W 091°37'33410.1
2017-Jun-25 12:55N 45°48' W 083°45'614.1
2017-Jun-25 12:27N 45°42' W 083°40'614.1
2017-Jun-25 12:00N 45°37' W 083°34'713.8
2017-Jun-25 11:30N 45°31' W 083°29'713.7
2017-Jun-25 10:58N 45°25' W 083°23'  
2017-Jun-21 23:41N 45°42' W 083°20'512.4
2017-Jun-21 23:16N 45°45' W 083°27'312.5
2017-Jun-21 23:00N 45°46' W 083°31'612.6
2017-Jun-21 22:30N 45°50' W 083°38'712.9
2017-Jun-21 22:00N 45°53' W 083°46'612.3
2017-Jun-21 21:31N 45°57' W 083°54'19 9.1
2017-Jun-21 19:22N 46°13' W 084°09'298 9.3
2017-Jun-20 11:22N 47°05' W 091°17'512.6
2017-Jun-20 11:00N 47°03' W 091°23'612.6
2017-Jun-20 10:30N 47°02' W 091°32'611.1
2017-Jun-20 10:00N 47°00' W 091°40'1 1.3
2017-Jun-20 09:30N 47°01' W 091°40'0 0.0
2017-Jun-20 09:00N 47°01' W 091°40'0 0.0
2017-Jun-20 08:29N 47°01' W 091°40'0 0.0
2017-Jun-20 08:00N 47°01' W 091°40'0 0.0
2017-Jun-20 07:30N 47°01' W 091°40'0 0.0
2017-Jun-20 07:00N 47°01' W 091°40'0 0.0
2017-Jun-20 06:23N 47°01' W 091°40'0 0.0
2017-Jun-19 23:25N 47°01' W 091°40'0 1.2
2017-Jun-19 23:00N 47°00' W 091°40'336 9.9
2017-Jun-18 12:55N 45°47' W 083°45'613.6
2017-Jun-18 12:30N 45°43' W 083°40'713.4
2017-Jun-18 12:00N 45°37' W 083°35'713.3
2017-Jun-18 11:30N 45°32' W 083°29'713.4
2017-Jun-18 10:58N 45°26' W 083°23'  

Dump ship's entire track history